»·PEaware :: N132KT O60-KOGD

N132KT :: O60-KOGD

FLIGHT INFORMATION

Flight Status: Arrived
Operator: Privately registered:
United States
More flights under this callsign
Pilot: Keith S. (1)
Aircraft: BEECH AIRCRAFT BARON
(BE58)
More flights by this aircraft type
Origin: O60 Cloverdale Mun
United States
Destination: KOGD Ogden-Hinckley
United States
More flights between these airports :: More routes between these airports
Route:
File this flight plan on PilotEdge
Remarks:
Altitude:
(Current/Filed)
11,500ft
Speed:
(Current/Filed)
180kts
Departed: 21-Jan-20 08:14 AM
Arrived: 21-Jan-20 10:26 AM
Distance/Time
Traveled:
525nm/2:11
Distance/Time
To Go:
Arrived

Flight Plot

Page will automatically refresh every two minutes.

Flight plan parsing failed; only flown route is shown


Map Options




Map Legend


Flown Route
Filed Route
Departure Airport
Arrival Airport
Navaid (VOR, NDB)
Fix

Horizontal Profiles

Position Reports

Time Latitude Longitude Heading Altitude Ground
Speed
21-Jan-20 08:12 39.306328 -120.331578 78 9462ft 184kts
21-Jan-20 08:13 39.321464 -120.270773 78 9964ft 175kts
21-Jan-20 08:14 39.336345 -120.210754 78 10409ft 175kts
21-Jan-20 08:15 39.351272 -120.150436 78 10840ft 176kts
21-Jan-20 08:16 39.366365 -120.089299 78 11268ft 178kts
21-Jan-20 08:17 39.388645 -120.031973 55 11552ft 189kts
21-Jan-20 08:18 39.419480 -119.974268 58 11560ft 199kts
21-Jan-20 08:19 39.450796 -119.913769 58 11545ft 202kts
21-Jan-20 08:20 39.482336 -119.852543 59 11528ft 203kts
21-Jan-20 08:21 39.513696 -119.791532 59 11524ft 202kts
21-Jan-20 08:22 39.545177 -119.730138 59 11523ft 202kts
21-Jan-20 08:23 39.576299 -119.669348 59 11525ft 202kts
21-Jan-20 08:24 39.607483 -119.608336 59 11527ft 202kts
21-Jan-20 08:25 39.638738 -119.547073 59 11530ft 202kts
21-Jan-20 08:26 39.669768 -119.485817 54 11532ft 203kts
21-Jan-20 08:27 39.701191 -119.424492 59 11531ft 203kts
21-Jan-20 08:28 39.732386 -119.362763 59 11528ft 203kts
21-Jan-20 08:29 39.763449 -119.301396 60 11520ft 202kts
21-Jan-20 08:30 39.794268 -119.240326 60 11514ft 202kts
21-Jan-20 08:31 39.825155 -119.179084 60 11519ft 201kts
21-Jan-20 08:32 39.855961 -119.117859 59 11519ft 201kts
21-Jan-20 08:33 39.886586 -119.056884 59 11518ft 201kts
21-Jan-20 08:34 39.917222 -118.995732 58 11522ft 200kts
21-Jan-20 08:35 39.947593 -118.935020 58 11516ft 198kts
21-Jan-20 08:36 39.977545 -118.875044 57 11516ft 195kts
21-Jan-20 08:37 40.006991 -118.815965 56 11517ft 192kts
21-Jan-20 08:38 40.036014 -118.757647 56 11510ft 190kts
21-Jan-20 08:39 40.064687 -118.699911 56 11515ft 189kts
21-Jan-20 08:40 40.093325 -118.642121 56 11518ft 189kts
21-Jan-20 08:41 40.121312 -118.585446 61 11509ft 188kts
21-Jan-20 08:42 40.133620 -118.519588 81 11518ft 186kts
21-Jan-20 08:43 40.143419 -118.453134 81 11517ft 186kts
21-Jan-20 08:44 40.153140 -118.386259 81 11517ft 186kts
21-Jan-20 08:45 40.162646 -118.320539 82 11509ft 186kts
21-Jan-20 08:46 40.172207 -118.254106 82 11510ft 185kts
21-Jan-20 08:47 40.181753 -118.187514 82 11512ft 185kts
21-Jan-20 08:48 40.191240 -118.121057 82 11513ft 185kts
21-Jan-20 08:49 40.200683 -118.054621 82 11512ft 185kts
21-Jan-20 08:50 40.210100 -117.988073 82 11510ft 186kts
21-Jan-20 08:51 40.219487 -117.921457 82 11506ft 186kts
21-Jan-20 08:52 40.228895 -117.854401 82 11501ft 187kts
21-Jan-20 08:53 40.238272 -117.787262 82 11494ft 187kts
21-Jan-20 08:54 40.247682 -117.719601 81 11488ft 188kts
21-Jan-20 08:55 40.257084 -117.651697 81 11483ft 189kts
21-Jan-20 08:56 40.266462 -117.583650 81 11480ft 189kts
21-Jan-20 08:57 40.275826 -117.515353 81 11491ft 190kts
21-Jan-20 08:58 40.285189 -117.446802 81 11498ft 190kts
21-Jan-20 08:59 40.294561 -117.377859 80 11503ft 191kts
21-Jan-20 09:01 40.303612 -117.311042 81 11501ft 190kts
21-Jan-20 09:02 40.312849 -117.242479 81 11502ft 190kts
21-Jan-20 09:03 40.322035 -117.173957 81 11504ft 190kts
21-Jan-20 09:04 40.331171 -117.105463 81 11507ft 190kts
21-Jan-20 09:05 40.340207 -117.037275 80 11505ft 189kts
21-Jan-20 09:06 40.349165 -116.969559 79 11538ft 186kts
21-Jan-20 09:07 40.357916 -116.903087 79 11545ft 184kts
21-Jan-20 09:08 40.366569 -116.837109 79 11538ft 182kts
21-Jan-20 09:09 40.375144 -116.771373 79 11540ft 182kts
21-Jan-20 09:10 40.383662 -116.705748 79 11542ft 181kts
21-Jan-20 09:11 40.392135 -116.640160 79 11543ft 182kts
21-Jan-20 09:12 40.400550 -116.574718 79 11543ft 182kts
21-Jan-20 09:13 40.408973 -116.508912 79 11544ft 182kts
21-Jan-20 09:14 40.417356 -116.443119 79 11563ft 182kts
21-Jan-20 09:15 40.425718 -116.377167 79 11563ft 183kts
21-Jan-20 09:16 40.433992 -116.311610 79 11555ft 183kts
21-Jan-20 09:17 40.442279 -116.245619 79 11553ft 182kts
21-Jan-20 09:18 40.450497 -116.179874 79 11551ft 182kts
21-Jan-20 09:19 40.458681 -116.114090 79 11550ft 182kts
21-Jan-20 09:20 40.466833 -116.048251 79 11551ft 182kts
21-Jan-20 09:20 40.473611 -115.993257 79 11551ft 182kts
21-Jan-20 09:21 40.481682 -115.927485 79 11551ft 182kts
21-Jan-20 09:23 40.491087 -115.850444 79 11551ft 182kts
21-Jan-20 09:23 40.497754 -115.795554 79 11551ft 182kts
21-Jan-20 09:24 40.505756 -115.729372 79 11552ft 182kts
21-Jan-20 09:26 40.515032 -115.652255 79 11552ft 182kts
21-Jan-20 09:26 40.521637 -115.597063 79 11552ft 182kts
21-Jan-20 09:27 40.529515 -115.530925 79 11552ft 182kts
21-Jan-20 09:28 40.537387 -115.464506 79 11552ft 182kts
21-Jan-20 09:29 40.545132 -115.398836 79 11553ft 183kts
21-Jan-20 09:30 40.552984 -115.331925 80 11549ft 183kts
21-Jan-20 09:31 40.560700 -115.265812 80 11549ft 182kts
21-Jan-20 09:32 40.568387 -115.199621 80 11550ft 182kts
21-Jan-20 09:33 40.576036 -115.133597 81 11552ft 182kts
21-Jan-20 09:35 40.584887 -115.056563 82 11552ft 181kts
21-Jan-20 09:35 40.591167 -115.001600 82 11551ft 181kts
21-Jan-20 09:36 40.598609 -114.936098 82 11547ft 180kts
21-Jan-20 09:37 40.605993 -114.870760 83 11565ft 179kts
21-Jan-20 09:38 40.613283 -114.806007 83 11580ft 178kts
21-Jan-20 09:39 40.620556 -114.741053 83 11592ft 178kts
21-Jan-20 09:40 40.627753 -114.676452 83 11598ft 178kts
21-Jan-20 09:41 40.634931 -114.611669 83 11599ft 178kts
21-Jan-20 09:42 40.642080 -114.546820 83 11598ft 178kts
21-Jan-20 09:43 40.649213 -114.481781 83 11598ft 179kts
21-Jan-20 09:44 40.656295 -114.416850 83 11596ft 179kts
21-Jan-20 09:45 40.663341 -114.351903 83 11598ft 179kts
21-Jan-20 09:46 40.670384 -114.286642 83 11596ft 178kts
21-Jan-20 09:47 40.677367 -114.221589 83 11595ft 178kts
21-Jan-20 09:48 40.684300 -114.156633 83 11595ft 178kts
21-Jan-20 09:49 40.691183 -114.091776 83 11599ft 178kts
21-Jan-20 09:50 40.698050 -114.026753 83 11598ft 178kts
21-Jan-20 09:51 40.704869 -113.961786 83 11599ft 178kts
21-Jan-20 09:52 40.711675 -113.896608 83 11598ft 178kts
21-Jan-20 09:53 40.718440 -113.831460 83 11597ft 179kts
21-Jan-20 09:54 40.725175 -113.766217 83 11597ft 179kts
21-Jan-20 09:55 40.730448 -113.700912 85 11596ft 179kts
21-Jan-20 09:56 40.735499 -113.635450 85 11599ft 179kts
21-Jan-20 09:57 40.740496 -113.570030 85 11599ft 179kts
21-Jan-20 09:58 40.745458 -113.504596 85 11600ft 179kts
21-Jan-20 09:59 40.750399 -113.438916 85 11605ft 179kts
21-Jan-20 10:00 40.755279 -113.373573 85 11615ft 178kts
21-Jan-20 10:01 40.760096 -113.308588 86 11618ft 178kts
21-Jan-20 10:03 40.765695 -113.232363 86 11625ft 178kts
21-Jan-20 10:03 40.769670 -113.177777 86 11624ft 178kts
21-Jan-20 10:04 40.774412 -113.112280 86 11628ft 178kts
21-Jan-20 10:05 40.779113 -113.046804 86 11625ft 178kts
21-Jan-20 10:06 40.783806 -112.980986 86 11615ft 180kts
21-Jan-20 10:07 40.789686 -112.914805 66 11559ft 186kts
21-Jan-20 10:08 40.818437 -112.856438 54 11319ft 198kts
21-Jan-20 10:09 40.851653 -112.794689 52 10807ft 206kts
21-Jan-20 10:10 40.885527 -112.731974 52 10249ft 207kts
21-Jan-20 10:11 40.919361 -112.669222 51 9634ft 205kts
21-Jan-20 10:12 40.952658 -112.607346 51 9043ft 201kts
21-Jan-20 10:13 40.984800 -112.547533 52 8488ft 194kts
21-Jan-20 10:14 41.016341 -112.488684 52 7900ft 190kts
21-Jan-20 10:15 41.047048 -112.431286 52 7332ft 187kts
21-Jan-20 10:16 41.076840 -112.375513 57 6772ft 183kts
21-Jan-20 10:17 41.105243 -112.322209 56 6195ft 185kts
21-Jan-20 10:18 41.134991 -112.266294 56 5637ft 184kts
21-Jan-20 10:19 41.164297 -112.211112 56 5085ft 182kts
21-Jan-20 10:20 41.193019 -112.156973 56 4779ft 167kts
21-Jan-20 10:21 41.217915 -112.109613 64 5762ft 150kts
21-Jan-20 10:22 41.209590 -112.055104 114 5685ft 155kts
21-Jan-20 10:23 41.208485 -112.014574 37 5007ft 119kts
21-Jan-20 10:24 41.198847 -112.006574 222 4433ft 71kts
21-Jan-20 10:25 41.195866 -112.006908 151 4433ft 0kts
21-Jan-20 10:26 41.195866 -112.006908 151 4433ft 0kts
21-Jan-20 10:27 41.195866 -112.006908 151 4433ft 0kts
21-Jan-20 10:28 41.195866 -112.006908 151 4433ft 0kts
21-Jan-20 10:29 41.195866 -112.006908 151 4433ft 0kts
21-Jan-20 10:30 41.195866 -112.006908 151 4433ft 0kts
21-Jan-20 10:31 41.195866 -112.006908 151 4433ft 0kts

Navigation Log

Ident Type
Flight plan parsing failed, navigation log unavailable